Terminal Aerodrome Forecast
Issued by NWS Atlanta, GA

Home | Current Version | Previous Version | Text Only | Print | Product List | Glossary On
Versions: 1 2 3 4 5 6 7 8 9 10 11 12 13 14 15 16
288
FTUS42 KFFC 061128
TAFCSG
TAF
KCSG 061128Z 0612/0712 08005KT P6SM FEW250
     FM061500 08006KT P6SM BKN250
     FM062100 04005KT P6SM BKN120=

USA.gov is the U.S. government's official web portal to all federal, state and local government web resources and services.